Wolf 59 — CGBP — position and weather

sailwx.info

Track history (hours):
 
Tides and Currents Weather Stations Pressure Air Temp Water Temp Dewpoint Dewpoint Depression Visibility Wind Speed Wind Dir Waves Ship Positions

Wolf 59

Last reported at 2014-Jul-30 16:29 UTC. Time now 2014-Jul-30 17:08 UTC.
Position N 49°38' W 124°53'.

Length 33 m; draft 2.6 m.

Type: Military. MMSI: 316011515.

Date/timePositionNaut miles runAvg speedWind from/ knotsBaromVisibWave heightAir tempDewpointWater temp
2014-Jul-30 16:29N 49°38' W 124°53'2 0.2
2014-Jul-30 06:18N 49°40' W 124°55'0 0.0
2014-Jul-30 03:30N 49°40' W 124°55'0 0.0
2014-Jul-30 02:30N 49°40' W 124°55'0 0.5
2014-Jul-30 01:30N 49°40' W 124°56'8 8.5
2014-Jul-30 00:33N 49°35' W 124°46'7 6.8
2014-Jul-29 23:33N 49°31' W 124°37'0 0.2
2014-Jul-29 22:31N 49°31' W 124°38'4 3.7
2014-Jul-29 21:33N 49°29' W 124°33'8 7.9
2014-Jul-29 20:33N 49°25' W 124°23'8 7.9
2014-Jul-29 19:34N 49°21' W 124°12'10 9.8
2014-Jul-29 18:34N 49°16' W 123°59'6 2.9
2014-Jul-29 16:29N 49°10' W 123°56'0 0.0
2014-Jul-29 15:11N 49°10' W 123°56'0 0.0
2014-Jul-29 14:10N 49°10' W 123°56'0 0.0
2014-Jul-29 13:22N 49°10' W 123°56'0 0.0
2014-Jul-29 12:22N 49°10' W 123°56'0 0.0
2014-Jul-29 10:28N 49°10' W 123°56'0 0.0
2014-Jul-29 09:16N 49°10' W 123°56'0 0.0
2014-Jul-29 08:31N 49°10' W 123°56'0 0.0
2014-Jul-29 07:31N 49°10' W 123°56'0 0.0
2014-Jul-29 06:28N 49°10' W 123°56'0 0.0
2014-Jul-29 05:31N 49°10' W 123°56'0 0.0
2014-Jul-29 04:25N 49°10' W 123°56'0 0.0
2014-Jul-29 02:28N 49°10' W 123°56'0 0.0
2014-Jul-29 01:28N 49°10' W 123°56'0 0.0
2014-Jul-29 00:28N 49°10' W 123°56'0 0.0
2014-Jul-28 23:31N 49°10' W 123°56'0 0.0
2014-Jul-28 22:04N 49°10' W 123°56'0 0.0
2014-Jul-28 21:19N 49°10' W 123°56'0 0.0
2014-Jul-28 20:19N 49°10' W 123°56'0 0.0
2014-Jul-28 16:31N 49°10' W 123°56'0 0.0
2014-Jul-28 15:25N 49°10' W 123°56'0 0.0
2014-Jul-28 14:25N 49°10' W 123°56'0 0.0
2014-Jul-28 13:31N 49°10' W 123°56'0 0.0
2014-Jul-28 12:31N 49°10' W 123°56'0 0.0
2014-Jul-28 11:31N 49°10' W 123°56'0 0.0
2014-Jul-28 10:31N 49°10' W 123°56'0 0.0
2014-Jul-28 09:31N 49°10' W 123°56'0 0.0
2014-Jul-28 08:24N 49°10' W 123°56'0 0.0
2014-Jul-28 07:30N 49°10' W 123°56'0 0.0
2014-Jul-28 06:24N 49°10' W 123°56'0 0.0
2014-Jul-28 05:30N 49°10' W 123°56'0 0.0
2014-Jul-28 04:33N 49°10' W 123°56'0 0.0
2014-Jul-28 03:30N 49°10' W 123°56'0 0.0
2014-Jul-28 01:33N 49°10' W 123°56'3 3.2
2014-Jul-28 00:33N 49°13' W 123°56'9 8.9
2014-Jul-27 23:34N 49°16' W 124°09'0 0.5
2014-Jul-27 22:34N 49°16' W 124°10'0 0.5
2014-Jul-27 21:34N 49°16' W 124°09'1 0.7
2014-Jul-27 20:34N 49°16' W 124°08'8 8.0
2014-Jul-27 19:34N 49°23' W 124°04'1211.5
2014-Jul-27 18:33N 49°35' W 124°08'1211.9
2014-Jul-27 17:34N 49°43' W 124°20'10 9.7
2014-Jul-27 16:32N 49°49' W 124°33'1 0.0
2014-Jul-25 22:33N 49°49' W 124°35'1110.8
2014-Jul-25 21:32N 49°42' W 124°47'6 5.9
2014-Jul-25 20:33N 49°39' W 124°56'0 0.0
2014-Jul-24 22:33N 49°40' W 124°56'1010.0
2014-Jul-24 21:31N 49°33' W 124°44'5 4.6
2014-Jul-24 20:32N 49°31' W 124°38'0 0.1
2014-Jul-24 19:32N 49°31' W 124°38'1 1.1
2014-Jul-24 18:33N 49°30' W 124°36'4 4.2
2014-Jul-24 17:32N 49°28' W 124°42'8 7.5
2014-Jul-24 16:25N 49°34' W 124°52'6 7.2
2014-Jul-24 15:33N 49°40' W 124°55'1 0.1
2014-Jul-23 22:31N 49°39' W 124°54'8 6.8
2014-Jul-23 21:22N 49°32' W 124°50'6 7.6
2014-Jul-23 20:32N 49°28' W 124°42'1211.8
2014-Jul-23 19:33N 49°25' W 124°25'1212.0
2014-Jul-23 18:33N 49°19' W 124°08'10 9.6
2014-Jul-23 17:33N 49°14' W 123°56'4 3.5
2014-Jul-23 16:33N 49°10' W 123°56'0 0.0
2014-Jul-23 15:32N 49°10' W 123°56'0 0.0
2014-Jul-23 14:33N 49°10' W 123°56'0 0.0
2014-Jul-23 13:33N 49°10' W 123°56'0 0.0
2014-Jul-23 12:33N 49°10' W 123°56'0 0.0
2014-Jul-23 11:33N 49°10' W 123°56'0 0.0
2014-Jul-23 10:33N 49°10' W 123°56'0 0.0
2014-Jul-23 09:33N 49°10' W 123°56'0 0.0
2014-Jul-23 08:33N 49°10' W 123°56'0 0.0
2014-Jul-23 07:33N 49°10' W 123°56'0 0.0
2014-Jul-23 06:33N 49°10' W 123°56'0 0.0
2014-Jul-23 05:32N 49°10' W 123°56'0 0.0
2014-Jul-23 03:11N 49°10' W 123°56'0 0.0
2014-Jul-23 02:32N 49°10' W 123°56'0 0.0
2014-Jul-23 00:29N 49°10' W 123°56'0 0.3
2014-Jul-22 23:33N 49°10' W 123°55'9 9.5
2014-Jul-22 22:33N 49°12' W 123°41'1919.3
2014-Jul-22 21:33N 48°57' W 123°22'8 6.8
2014-Jul-22 20:20N 48°49' W 123°20'912.3
2014-Jul-22 19:33N 48°40' W 123°15'1313.6
2014-Jul-22 18:33N 48°27' W 123°15'7 7.3
2014-Jul-22 17:33N 48°24' W 123°26'2 1.9
2014-Jul-22 16:29N 48°26' W 123°26'0 0.0
2014-Jul-22 13:20N 48°26' W 123°26'0 0.0
2014-Jul-22 12:26N 48°26' W 123°26'0 0.0
2014-Jul-21 20:26N 48°26' W 123°26'0 0.0
2014-Jul-21 18:08N 48°26' W 123°26'0 0.0
2014-Jul-21 17:32N 48°26' W 123°26'0 0.0
2014-Jul-21 16:32N 48°26' W 123°26'0 0.0
2014-Jul-21 15:29N 48°26' W 123°26'0 0.0
2014-Jul-21 14:33N 48°26' W 123°26'0 0.0
2014-Jul-21 13:33N 48°26' W 123°26'0 0.0
2014-Jul-21 12:33N 48°26' W 123°26'0 0.0
2014-Jul-21 11:33N 48°26' W 123°26'0 0.0
2014-Jul-21 10:33N 48°26' W 123°26'0 0.0
2014-Jul-21 09:33N 48°26' W 123°26'0 0.0
2014-Jul-21 08:20N 48°26' W 123°26'0 0.0
2014-Jul-21 07:25N 48°26' W 123°26'0 0.0
2014-Jul-21 06:27N 48°26' W 123°26'0 0.0
2014-Jul-21 05:29N 48°26' W 123°26'0 0.0
2014-Jul-21 04:27N 48°26' W 123°26'0 0.0
2014-Jul-21 03:25N 48°26' W 123°26'0 0.0
2014-Jul-21 02:12N 48°26' W 123°26'0 0.0
2014-Jul-21 01:32N 48°26' W 123°26'0 0.0
2014-Jul-21 00:33N 48°26' W 123°26'0 0.0
2014-Jul-20 23:32N 48°26' W 123°26'0 0.0
2014-Jul-20 22:33N 48°26' W 123°26'0 0.0
2014-Jul-20 21:33N 48°26' W 123°26'0 0.0
2014-Jul-20 20:33N 48°26' W 123°26'0 0.0
2014-Jul-20 19:32N 48°26' W 123°26'0 0.0
2014-Jul-20 18:33N 48°26' W 123°26'0 0.0
2014-Jul-20 17:33N 48°26' W 123°26'0 0.0
2014-Jul-20 16:33N 48°26' W 123°26'  
Track history (hours):
 
Tides and Currents Weather Stations Pressure Air Temp Water Temp Dewpoint Dewpoint Depression Visibility Wind Speed Wind Dir Waves Ship Positions

Wolf 59

Last reported at 2014-Jul-30 16:29 UTC. Time now 2014-Jul-30 17:08 UTC.
Position N 49°38' W 124°53'.

Length 33 m; draft 2.6 m.

Type: Military. MMSI: 316011515.

Date/timePositionNaut miles runAvg speedWind from/ knotsBaromVisibWave heightAir tempDewpointWater temp
2014-Jul-30 16:29N 49°38' W 124°53'2 0.2
2014-Jul-30 06:18N 49°40' W 124°55'0 0.0
2014-Jul-30 03:30N 49°40' W 124°55'0 0.0
2014-Jul-30 02:30N 49°40' W 124°55'0 0.5
2014-Jul-30 01:30N 49°40' W 124°56'8 8.5
2014-Jul-30 00:33N 49°35' W 124°46'7 6.8
2014-Jul-29 23:33N 49°31' W 124°37'0 0.2
2014-Jul-29 22:31N 49°31' W 124°38'4 3.7
2014-Jul-29 21:33N 49°29' W 124°33'8 7.9
2014-Jul-29 20:33N 49°25' W 124°23'8 7.9
2014-Jul-29 19:34N 49°21' W 124°12'10 9.8
2014-Jul-29 18:34N 49°16' W 123°59'6 2.9
2014-Jul-29 16:29N 49°10' W 123°56'0 0.0
2014-Jul-29 15:11N 49°10' W 123°56'0 0.0
2014-Jul-29 14:10N 49°10' W 123°56'0 0.0
2014-Jul-29 13:22N 49°10' W 123°56'0 0.0
2014-Jul-29 12:22N 49°10' W 123°56'0 0.0
2014-Jul-29 10:28N 49°10' W 123°56'0 0.0
2014-Jul-29 09:16N 49°10' W 123°56'0 0.0
2014-Jul-29 08:31N 49°10' W 123°56'0 0.0
2014-Jul-29 07:31N 49°10' W 123°56'0 0.0
2014-Jul-29 06:28N 49°10' W 123°56'0 0.0
2014-Jul-29 05:31N 49°10' W 123°56'0 0.0
2014-Jul-29 04:25N 49°10' W 123°56'0 0.0
2014-Jul-29 02:28N 49°10' W 123°56'0 0.0
2014-Jul-29 01:28N 49°10' W 123°56'0 0.0
2014-Jul-29 00:28N 49°10' W 123°56'0 0.0
2014-Jul-28 23:31N 49°10' W 123°56'0 0.0
2014-Jul-28 22:04N 49°10' W 123°56'0 0.0
2014-Jul-28 21:19N 49°10' W 123°56'0 0.0
2014-Jul-28 20:19N 49°10' W 123°56'0 0.0
2014-Jul-28 16:31N 49°10' W 123°56'0 0.0
2014-Jul-28 15:25N 49°10' W 123°56'0 0.0
2014-Jul-28 14:25N 49°10' W 123°56'0 0.0
2014-Jul-28 13:31N 49°10' W 123°56'0 0.0
2014-Jul-28 12:31N 49°10' W 123°56'0 0.0
2014-Jul-28 11:31N 49°10' W 123°56'0 0.0
2014-Jul-28 10:31N 49°10' W 123°56'0 0.0
2014-Jul-28 09:31N 49°10' W 123°56'0 0.0
2014-Jul-28 08:24N 49°10' W 123°56'0 0.0
2014-Jul-28 07:30N 49°10' W 123°56'0 0.0
2014-Jul-28 06:24N 49°10' W 123°56'0 0.0
2014-Jul-28 05:30N 49°10' W 123°56'0 0.0
2014-Jul-28 04:33N 49°10' W 123°56'0 0.0
2014-Jul-28 03:30N 49°10' W 123°56'0 0.0
2014-Jul-28 01:33N 49°10' W 123°56'3 3.2
2014-Jul-28 00:33N 49°13' W 123°56'9 8.9
2014-Jul-27 23:34N 49°16' W 124°09'0 0.5
2014-Jul-27 22:34N 49°16' W 124°10'0 0.5
2014-Jul-27 21:34N 49°16' W 124°09'1 0.7
2014-Jul-27 20:34N 49°16' W 124°08'8 8.0
2014-Jul-27 19:34N 49°23' W 124°04'1211.5
2014-Jul-27 18:33N 49°35' W 124°08'1211.9
2014-Jul-27 17:34N 49°43' W 124°20'10 9.7
2014-Jul-27 16:32N 49°49' W 124°33'1 0.0
2014-Jul-25 22:33N 49°49' W 124°35'1110.8
2014-Jul-25 21:32N 49°42' W 124°47'6 5.9
2014-Jul-25 20:33N 49°39' W 124°56'0 0.0
2014-Jul-24 22:33N 49°40' W 124°56'1010.0
2014-Jul-24 21:31N 49°33' W 124°44'5 4.6
2014-Jul-24 20:32N 49°31' W 124°38'0 0.1
2014-Jul-24 19:32N 49°31' W 124°38'1 1.1
2014-Jul-24 18:33N 49°30' W 124°36'4 4.2
2014-Jul-24 17:32N 49°28' W 124°42'8 7.5
2014-Jul-24 16:25N 49°34' W 124°52'6 7.2
2014-Jul-24 15:33N 49°40' W 124°55'1 0.1
2014-Jul-23 22:31N 49°39' W 124°54'8 6.8
2014-Jul-23 21:22N 49°32' W 124°50'6 7.6
2014-Jul-23 20:32N 49°28' W 124°42'1211.8
2014-Jul-23 19:33N 49°25' W 124°25'1212.0
2014-Jul-23 18:33N 49°19' W 124°08'10 9.6
2014-Jul-23 17:33N 49°14' W 123°56'4 3.5
2014-Jul-23 16:33N 49°10' W 123°56'0 0.0
2014-Jul-23 15:32N 49°10' W 123°56'0 0.0
2014-Jul-23 14:33N 49°10' W 123°56'0 0.0
2014-Jul-23 13:33N 49°10' W 123°56'0 0.0
2014-Jul-23 12:33N 49°10' W 123°56'0 0.0
2014-Jul-23 11:33N 49°10' W 123°56'0 0.0
2014-Jul-23 10:33N 49°10' W 123°56'0 0.0
2014-Jul-23 09:33N 49°10' W 123°56'0 0.0
2014-Jul-23 08:33N 49°10' W 123°56'0 0.0
2014-Jul-23 07:33N 49°10' W 123°56'0 0.0
2014-Jul-23 06:33N 49°10' W 123°56'0 0.0
2014-Jul-23 05:32N 49°10' W 123°56'0 0.0
2014-Jul-23 03:11N 49°10' W 123°56'0 0.0
2014-Jul-23 02:32N 49°10' W 123°56'0 0.0
2014-Jul-23 00:29N 49°10' W 123°56'0 0.3
2014-Jul-22 23:33N 49°10' W 123°55'9 9.5
2014-Jul-22 22:33N 49°12' W 123°41'1919.3
2014-Jul-22 21:33N 48°57' W 123°22'8 6.8
2014-Jul-22 20:20N 48°49' W 123°20'912.3
2014-Jul-22 19:33N 48°40' W 123°15'1313.6
2014-Jul-22 18:33N 48°27' W 123°15'7 7.3
2014-Jul-22 17:33N 48°24' W 123°26'2 1.9
2014-Jul-22 16:29N 48°26' W 123°26'0 0.0
2014-Jul-22 13:20N 48°26' W 123°26'0 0.0
2014-Jul-22 12:26N 48°26' W 123°26'0 0.0
2014-Jul-21 20:26N 48°26' W 123°26'0 0.0
2014-Jul-21 18:08N 48°26' W 123°26'0 0.0
2014-Jul-21 17:32N 48°26' W 123°26'0 0.0
2014-Jul-21 16:32N 48°26' W 123°26'0 0.0
2014-Jul-21 15:29N 48°26' W 123°26'0 0.0
2014-Jul-21 14:33N 48°26' W 123°26'0 0.0
2014-Jul-21 13:33N 48°26' W 123°26'0 0.0
2014-Jul-21 12:33N 48°26' W 123°26'0 0.0
2014-Jul-21 11:33N 48°26' W 123°26'0 0.0
2014-Jul-21 10:33N 48°26' W 123°26'0 0.0
2014-Jul-21 09:33N 48°26' W 123°26'0 0.0
2014-Jul-21 08:20N 48°26' W 123°26'0 0.0
2014-Jul-21 07:25N 48°26' W 123°26'0 0.0
2014-Jul-21 06:27N 48°26' W 123°26'0 0.0
2014-Jul-21 05:29N 48°26' W 123°26'0 0.0
2014-Jul-21 04:27N 48°26' W 123°26'0 0.0
2014-Jul-21 03:25N 48°26' W 123°26'0 0.0
2014-Jul-21 02:12N 48°26' W 123°26'0 0.0
2014-Jul-21 01:32N 48°26' W 123°26'0 0.0
2014-Jul-21 00:33N 48°26' W 123°26'0 0.0
2014-Jul-20 23:32N 48°26' W 123°26'0 0.0
2014-Jul-20 22:33N 48°26' W 123°26'0 0.0
2014-Jul-20 21:33N 48°26' W 123°26'0 0.0
2014-Jul-20 20:33N 48°26' W 123°26'0 0.0
2014-Jul-20 19:32N 48°26' W 123°26'0 0.0
2014-Jul-20 18:33N 48°26' W 123°26'0 0.0
2014-Jul-20 17:33N 48°26' W 123°26'0 0.0
2014-Jul-20 16:33N 48°26' W 123°26'  

Dump ship's entire track history